sensor_id;sensor_type;location;lat;lon;timestamp;pressure;altitude;pressure_sealevel;temperature;humidity
34742;BME280;20968;42.696;23.360;2023-07-22T00:02:07;95144.03;;;27.89;48.50
34742;BME280;20968;42.696;23.360;2023-07-22T00:04:33;95149.41;;;27.94;48.50
34742;BME280;20968;42.696;23.360;2023-07-22T00:06:58;95147.44;;;27.87;48.37
34742;BME280;20968;42.696;23.360;2023-07-22T00:09:24;95154.25;;;27.65;49.18
34742;BME280;20968;42.696;23.360;2023-07-22T00:11:49;95159.47;;;27.69;48.97
34742;BME280;20968;42.696;23.360;2023-07-22T00:14:15;95158.59;;;27.76;49.51
34742;BME280;20968;42.696;23.360;2023-07-22T00:16:40;95161.09;;;27.62;49.77
34742;BME280;20968;42.696;23.360;2023-07-22T00:19:06;95157.47;;;27.53;49.96
34742;BME280;20968;42.696;23.360;2023-07-22T00:21:32;95160.56;;;27.47;50.52
34742;BME280;20968;42.696;23.360;2023-07-22T00:23:59;95160.13;;;27.51;50.70
34742;BME280;20968;42.696;23.360;2023-07-22T00:26:25;95153.41;;;27.46;51.09
34742;BME280;20968;42.696;23.360;2023-07-22T00:28:51;95152.78;;;27.38;51.08
34742;BME280;20968;42.696;23.360;2023-07-22T00:31:16;95155.31;;;27.34;51.33
34742;BME280;20968;42.696;23.360;2023-07-22T00:33:42;95162.13;;;27.31;51.67
34742;BME280;20968;42.696;23.360;2023-07-22T00:36:07;95153.94;;;27.26;51.70
34742;BME280;20968;42.696;23.360;2023-07-22T00:38:33;95157.81;;;27.30;52.04
34742;BME280;20968;42.696;23.360;2023-07-22T00:40:58;95162.56;;;27.28;51.76
34742;BME280;20968;42.696;23.360;2023-07-22T00:43:24;95155.91;;;27.33;52.03
34742;BME280;20968;42.696;23.360;2023-07-22T00:45:51;95156.91;;;27.28;52.03
34742;BME280;20968;42.696;23.360;2023-07-22T00:48:17;95159.69;;;27.18;52.27
34742;BME280;20968;42.696;23.360;2023-07-22T00:50:44;95164.94;;;27.22;52.51
34742;BME280;20968;42.696;23.360;2023-07-22T00:53:10;95172.25;;;27.25;52.18
34742;BME280;20968;42.696;23.360;2023-07-22T00:55:39;95166.72;;;27.27;52.16
34742;BME280;20968;42.696;23.360;2023-07-22T00:58:06;95179.41;;;27.26;52.81
34742;BME280;20968;42.696;23.360;2023-07-22T01:00:31;95175.00;;;27.15;52.98
34742;BME280;20968;42.696;23.360;2023-07-22T01:02:57;95162.31;;;27.07;53.40
34742;BME280;20968;42.696;23.360;2023-07-22T01:05:24;95169.13;;;27.04;53.23
34742;BME280;20968;42.696;23.360;2023-07-22T01:07:51;95155.81;;;26.97;53.53
34742;BME280;20968;42.696;23.360;2023-07-22T01:10:16;95150.34;;;26.99;53.52
34742;BME280;20968;42.696;23.360;2023-07-22T01:12:43;95148.78;;;27.05;53.48
34742;BME280;20968;42.696;23.360;2023-07-22T01:15:09;95137.66;;;26.90;53.88
34742;BME280;20968;42.696;23.360;2023-07-22T01:17:37;95138.94;;;26.80;53.87
34742;BME280;20968;42.696;23.360;2023-07-22T01:20:03;95152.56;;;26.74;54.20
34742;BME280;20968;42.696;23.360;2023-07-22T01:22:29;95161.03;;;26.74;54.50
34742;BME280;20968;42.696;23.360;2023-07-22T01:24:55;95152.19;;;26.61;54.90
34742;BME280;20968;42.696;23.360;2023-07-22T01:27:21;95151.59;;;26.62;55.30
34742;BME280;20968;42.696;23.360;2023-07-22T01:29:46;95151.19;;;26.66;55.21
34742;BME280;20968;42.696;23.360;2023-07-22T01:32:15;95146.91;;;26.74;54.88
34742;BME280;20968;42.696;23.360;2023-07-22T01:34:40;95138.72;;;26.69;54.39
34742;BME280;20968;42.696;23.360;2023-07-22T01:37:07;95136.16;;;26.63;54.62
34742;BME280;20968;42.696;23.360;2023-07-22T01:39:32;95133.06;;;26.69;54.87
34742;BME280;20968;42.696;23.360;2023-07-22T01:41:58;95140.53;;;26.74;54.75
34742;BME280;20968;42.696;23.360;2023-07-22T01:44:23;95137.56;;;26.81;54.40
34742;BME280;20968;42.696;23.360;2023-07-22T01:46:48;95140.56;;;26.83;54.04
34742;BME280;20968;42.696;23.360;2023-07-22T01:49:14;95139.72;;;26.90;54.05
34742;BME280;20968;42.696;23.360;2023-07-22T01:51:39;95129.72;;;26.89;53.94
34742;BME280;20968;42.696;23.360;2023-07-22T01:54:08;95139.88;;;26.92;54.05
34742;BME280;20968;42.696;23.360;2023-07-22T01:56:34;95127.63;;;26.80;54.62
34742;BME280;20968;42.696;23.360;2023-07-22T01:59:01;95128.94;;;26.79;55.25
34742;BME280;20968;42.696;23.360;2023-07-22T02:01:26;95118.34;;;26.70;55.32
34742;BME280;20968;42.696;23.360;2023-07-22T02:03:53;95123.00;;;26.58;55.78
34742;BME280;20968;42.696;23.360;2023-07-22T02:06:18;95114.81;;;26.53;55.92
34742;BME280;20968;42.696;23.360;2023-07-22T02:08:44;95127.31;;;26.59;55.76
34742;BME280;20968;42.696;23.360;2023-07-22T02:11:12;95127.38;;;26.42;55.71
34742;BME280;20968;42.696;23.360;2023-07-22T02:13:38;95121.13;;;26.44;56.13
34742;BME280;20968;42.696;23.360;2023-07-22T02:16:03;95119.53;;;26.50;56.07
34742;BME280;20968;42.696;23.360;2023-07-22T02:18:29;95129.84;;;26.55;55.92
34742;BME280;20968;42.696;23.360;2023-07-22T02:20:56;95129.28;;;26.40;56.26
34742;BME280;20968;42.696;23.360;2023-07-22T02:23:22;95132.75;;;26.31;56.56
34742;BME280;20968;42.696;23.360;2023-07-22T02:25:52;95137.00;;;26.22;56.59
34742;BME280;20968;42.696;23.360;2023-07-22T02:28:17;95132.84;;;26.23;56.62
34742;BME280;20968;42.696;23.360;2023-07-22T02:30:51;95140.72;;;26.25;57.15
34742;BME280;20968;42.696;23.360;2023-07-22T02:33:18;95142.97;;;26.26;56.65
34742;BME280;20968;42.696;23.360;2023-07-22T02:35:43;95139.88;;;26.32;56.46
34742;BME280;20968;42.696;23.360;2023-07-22T02:38:09;95141.38;;;26.33;56.56
34742;BME280;20968;42.696;23.360;2023-07-22T02:40:36;95146.06;;;26.38;56.88
34742;BME280;20968;42.696;23.360;2023-07-22T02:43:01;95148.13;;;26.37;56.96
34742;BME280;20968;42.696;23.360;2023-07-22T02:45:27;95141.16;;;26.38;56.76
34742;BME280;20968;42.696;23.360;2023-07-22T02:47:52;95136.91;;;26.30;56.53
34742;BME280;20968;42.696;23.360;2023-07-22T02:50:18;95136.31;;;26.14;57.61
34742;BME280;20968;42.696;23.360;2023-07-22T02:52:43;95135.78;;;26.16;57.67
34742;BME280;20968;42.696;23.360;2023-07-22T02:55:15;95141.31;;;26.23;57.33
34742;BME280;20968;42.696;23.360;2023-07-22T02:57:41;95144.13;;;26.23;56.97
34742;BME280;20968;42.696;23.360;2023-07-22T03:00:08;95151.13;;;26.22;57.74
34742;BME280;20968;42.696;23.360;2023-07-22T03:02:37;95138.91;;;26.20;57.70
34742;BME280;20968;42.696;23.360;2023-07-22T03:05:04;95133.25;;;26.20;57.67
34742;BME280;20968;42.696;23.360;2023-07-22T03:07:38;95132.25;;;26.25;57.83
34742;BME280;20968;42.696;23.360;2023-07-22T03:10:05;95146.31;;;26.32;57.50
34742;BME280;20968;42.696;23.360;2023-07-22T03:12:32;95150.13;;;26.27;57.55
34742;BME280;20968;42.696;23.360;2023-07-22T03:14:57;95143.41;;;26.06;58.36
34742;BME280;20968;42.696;23.360;2023-07-22T03:17:22;95149.28;;;26.00;58.43
34742;BME280;20968;42.696;23.360;2023-07-22T03:19:48;95151.63;;;26.11;57.86
34742;BME280;20968;42.696;23.360;2023-07-22T03:22:14;95149.38;;;26.10;57.81
34742;BME280;20968;42.696;23.360;2023-07-22T03:24:41;95154.03;;;26.15;57.67
34742;BME280;20968;42.696;23.360;2023-07-22T03:27:07;95151.22;;;26.15;57.66
34742;BME280;20968;42.696;23.360;2023-07-22T03:29:33;95154.19;;;26.17;57.89
34742;BME280;20968;42.696;23.360;2023-07-22T03:31:58;95162.66;;;26.17;58.24
34742;BME280;20968;42.696;23.360;2023-07-22T03:34:27;95162.56;;;26.07;58.86
34742;BME280;20968;42.696;23.360;2023-07-22T03:36:53;95163.91;;;26.06;58.53
34742;BME280;20968;42.696;23.360;2023-07-22T03:39:19;95175.13;;;26.14;58.21
34742;BME280;20968;42.696;23.360;2023-07-22T03:41:45;95163.84;;;26.14;58.39
34742;BME280;20968;42.696;23.360;2023-07-22T03:44:10;95177.38;;;26.15;58.15
34742;BME280;20968;42.696;23.360;2023-07-22T03:46:37;95176.03;;;26.16;58.76
34742;BME280;20968;42.696;23.360;2023-07-22T03:49:02;95174.31;;;26.21;58.05
34742;BME280;20968;42.696;23.360;2023-07-22T03:51:28;95177.53;;;26.17;58.44
34742;BME280;20968;42.696;23.360;2023-07-22T03:53:53;95189.94;;;26.22;58.39
34742;BME280;20968;42.696;23.360;2023-07-22T03:56:19;95185.19;;;26.24;57.57
34742;BME280;20968;42.696;23.360;2023-07-22T03:58:44;95186.50;;;26.23;57.06
34742;BME280;20968;42.696;23.360;2023-07-22T04:01:13;95195.47;;;26.29;55.64
34742;BME280;20968;42.696;23.360;2023-07-22T04:03:38;95198.66;;;26.33;54.71
34742;BME280;20968;42.696;23.360;2023-07-22T04:06:03;95194.31;;;26.15;55.24
34742;BME280;20968;42.696;23.360;2023-07-22T04:08:29;95191.50;;;26.15;54.91
34742;BME280;20968;42.696;23.360;2023-07-22T04:10:56;95204.94;;;26.07;55.17
34742;BME280;20968;42.696;23.360;2023-07-22T04:13:24;95201.78;;;26.03;55.60
34742;BME280;20968;42.696;23.360;2023-07-22T04:15:49;95195.63;;;25.97;55.24
34742;BME280;20968;42.696;23.360;2023-07-22T04:18:16;95203.94;;;25.96;55.33
34742;BME280;20968;42.696;23.360;2023-07-22T04:20:42;95197.44;;;25.86;55.93
34742;BME280;20968;42.696;23.360;2023-07-22T04:23:07;95201.75;;;25.87;56.20
34742;BME280;20968;42.696;23.360;2023-07-22T04:25:32;95199.44;;;25.93;56.33
34742;BME280;20968;42.696;23.360;2023-07-22T04:27:59;95195.69;;;25.90;56.46
34742;BME280;20968;42.696;23.360;2023-07-22T04:30:24;95195.97;;;26.01;57.06
34742;BME280;20968;42.696;23.360;2023-07-22T04:32:50;95199.66;;;26.11;57.16
34742;BME280;20968;42.696;23.360;2023-07-22T04:35:19;95210.59;;;26.24;58.28
34742;BME280;20968;42.696;23.360;2023-07-22T04:37:44;95216.75;;;26.30;58.39
34742;BME280;20968;42.696;23.360;2023-07-22T04:40:11;95220.28;;;26.38;58.74
34742;BME280;20968;42.696;23.360;2023-07-22T04:42:42;95214.22;;;26.42;58.37
34742;BME280;20968;42.696;23.360;2023-07-22T04:45:08;95215.72;;;26.43;58.16
34742;BME280;20968;42.696;23.360;2023-07-22T04:47:37;95219.09;;;26.58;58.14
34742;BME280;20968;42.696;23.360;2023-07-22T04:50:04;95219.03;;;26.66;58.52
34742;BME280;20968;42.696;23.360;2023-07-22T04:52:34;95210.19;;;26.78;56.74
34742;BME280;20968;42.696;23.360;2023-07-22T04:55:00;95210.59;;;26.75;56.71
34742;BME280;20968;42.696;23.360;2023-07-22T04:57:25;95218.78;;;26.71;57.09
34742;BME280;20968;42.696;23.360;2023-07-22T04:59:51;95215.28;;;26.63;56.90
34742;BME280;20968;42.696;23.360;2023-07-22T05:02:16;95224.56;;;26.73;56.66
34742;BME280;20968;42.696;23.360;2023-07-22T05:04:41;95221.91;;;26.75;56.67
34742;BME280;20968;42.696;23.360;2023-07-22T05:07:07;95231.22;;;26.85;56.62
34742;BME280;20968;42.696;23.360;2023-07-22T05:09:32;95226.94;;;26.93;56.18
34742;BME280;20968;42.696;23.360;2023-07-22T05:11:58;95234.19;;;27.04;56.37
34742;BME280;20968;42.696;23.360;2023-07-22T05:14:24;95227.47;;;26.99;55.77
34742;BME280;20968;42.696;23.360;2023-07-22T05:16:49;95235.78;;;27.14;56.25
34742;BME280;20968;42.696;23.360;2023-07-22T05:19:14;95240.16;;;27.25;56.19
34742;BME280;20968;42.696;23.360;2023-07-22T05:21:40;95243.13;;;27.27;56.01
34742;BME280;20968;42.696;23.360;2023-07-22T05:24:06;95235.19;;;27.16;55.74
34742;BME280;20968;42.696;23.360;2023-07-22T05:26:32;95237.00;;;27.21;55.98
34742;BME280;20968;42.696;23.360;2023-07-22T05:28:57;95233.72;;;27.24;55.93
34742;BME280;20968;42.696;23.360;2023-07-22T05:31:23;95235.44;;;27.37;55.63
34742;BME280;20968;42.696;23.360;2023-07-22T05:33:48;95236.09;;;27.45;55.49
34742;BME280;20968;42.696;23.360;2023-07-22T05:36:13;95240.63;;;27.57;54.61
34742;BME280;20968;42.696;23.360;2023-07-22T05:38:39;95245.69;;;27.58;54.97
34742;BME280;20968;42.696;23.360;2023-07-22T05:41:04;95248.56;;;27.68;55.35
34742;BME280;20968;42.696;23.360;2023-07-22T05:43:30;95244.91;;;27.75;54.54
34742;BME280;20968;42.696;23.360;2023-07-22T05:45:55;95245.66;;;27.85;54.36
34742;BME280;20968;42.696;23.360;2023-07-22T05:48:20;95244.66;;;27.90;54.57
34742;BME280;20968;42.696;23.360;2023-07-22T05:50:46;95248.47;;;27.75;54.57
34742;BME280;20968;42.696;23.360;2023-07-22T05:53:13;95241.50;;;27.86;55.40
34742;BME280;20968;42.696;23.360;2023-07-22T05:55:38;95239.47;;;28.05;54.97
34742;BME280;20968;42.696;23.360;2023-07-22T05:58:04;95238.84;;;27.97;54.37
34742;BME280;20968;42.696;23.360;2023-07-22T06:00:33;95242.00;;;28.01;54.38
34742;BME280;20968;42.696;23.360;2023-07-22T06:02:59;95243.06;;;28.06;53.89
34742;BME280;20968;42.696;23.360;2023-07-22T06:05:24;95252.25;;;28.23;53.55
34742;BME280;20968;42.696;23.360;2023-07-22T06:07:50;95261.47;;;28.33;53.82
34742;BME280;20968;42.696;23.360;2023-07-22T06:10:15;95259.41;;;28.43;54.73
34742;BME280;20968;42.696;23.360;2023-07-22T06:12:40;95263.16;;;28.45;54.16
34742;BME280;20968;42.696;23.360;2023-07-22T06:15:07;95269.75;;;28.57;53.40
34742;BME280;20968;42.696;23.360;2023-07-22T06:17:32;95279.16;;;28.69;52.81
34742;BME280;20968;42.696;23.360;2023-07-22T06:19:58;95285.28;;;28.75;52.71
34742;BME280;20968;42.696;23.360;2023-07-22T06:22:23;95279.88;;;28.60;52.30
34742;BME280;20968;42.696;23.360;2023-07-22T06:24:49;95279.72;;;28.49;52.98
34742;BME280;20968;42.696;23.360;2023-07-22T06:27:14;95287.91;;;28.36;53.84
34742;BME280;20968;42.696;23.360;2023-07-22T06:29:40;95286.88;;;28.31;53.08
34742;BME280;20968;42.696;23.360;2023-07-22T06:32:05;95284.19;;;28.42;53.30
34742;BME280;20968;42.696;23.360;2023-07-22T06:34:31;95290.94;;;28.66;54.29
34742;BME280;20968;42.696;23.360;2023-07-22T06:36:57;95284.84;;;28.79;53.68
34742;BME280;20968;42.696;23.360;2023-07-22T06:39:22;95285.44;;;28.68;53.97
34742;BME280;20968;42.696;23.360;2023-07-22T06:41:47;95290.22;;;28.75;53.81
34742;BME280;20968;42.696;23.360;2023-07-22T06:44:13;95301.72;;;29.05;53.44
34742;BME280;20968;42.696;23.360;2023-07-22T06:46:38;95297.72;;;29.27;53.10
34742;BME280;20968;42.696;23.360;2023-07-22T06:49:04;95299.50;;;29.41;50.26
34742;BME280;20968;42.696;23.360;2023-07-22T06:51:29;95290.25;;;29.41;50.98
34742;BME280;20968;42.696;23.360;2023-07-22T06:53:54;95286.94;;;29.44;51.03
34742;BME280;20968;42.696;23.360;2023-07-22T06:56:20;95279.72;;;29.62;51.31
34742;BME280;20968;42.696;23.360;2023-07-22T06:58:45;95276.56;;;29.68;52.47
34742;BME280;20968;42.696;23.360;2023-07-22T07:01:12;95274.59;;;29.70;51.92
34742;BME280;20968;42.696;23.360;2023-07-22T07:03:37;95275.00;;;29.86;50.54
34742;BME280;20968;42.696;23.360;2023-07-22T07:06:02;95280.75;;;29.67;50.58
34742;BME280;20968;42.696;23.360;2023-07-22T07:08:28;95274.41;;;29.87;51.98
34742;BME280;20968;42.696;23.360;2023-07-22T07:10:53;95270.91;;;30.07;49.32
34742;BME280;20968;42.696;23.360;2023-07-22T07:13:19;95267.59;;;30.11;50.07
34742;BME280;20968;42.696;23.360;2023-07-22T07:15:46;95265.56;;;30.23;49.17
34742;BME280;20968;42.696;23.360;2023-07-22T07:18:13;95266.59;;;30.27;48.85
34742;BME280;20968;42.696;23.360;2023-07-22T07:20:38;95266.97;;;30.22;49.17
34742;BME280;20968;42.696;23.360;2023-07-22T07:23:04;95261.81;;;30.30;48.86
34742;BME280;20968;42.696;23.360;2023-07-22T07:25:29;95270.44;;;30.41;49.00
34742;BME280;20968;42.696;23.360;2023-07-22T07:27:55;95264.50;;;30.58;48.90
34742;BME280;20968;42.696;23.360;2023-07-22T07:30:20;95256.03;;;30.70;48.66
34742;BME280;20968;42.696;23.360;2023-07-22T07:32:46;95262.53;;;30.61;47.43
34742;BME280;20968;42.696;23.360;2023-07-22T07:35:11;95264.44;;;30.68;48.39
34742;BME280;20968;42.696;23.360;2023-07-22T07:37:37;95258.81;;;30.79;49.59
34742;BME280;20968;42.696;23.360;2023-07-22T07:40:03;95263.13;;;30.80;48.02
34742;BME280;20968;42.696;23.360;2023-07-22T07:42:29;95256.97;;;30.83;48.44
34742;BME280;20968;42.696;23.360;2023-07-22T07:44:54;95254.13;;;30.83;48.05
34742;BME280;20968;42.696;23.360;2023-07-22T07:47:20;95253.69;;;30.98;46.24
34742;BME280;20968;42.696;23.360;2023-07-22T07:49:45;95256.28;;;30.94;45.85
34742;BME280;20968;42.696;23.360;2023-07-22T07:52:11;95244.22;;;30.84;46.60
34742;BME280;20968;42.696;23.360;2023-07-22T07:54:36;95247.69;;;31.04;47.35
34742;BME280;20968;42.696;23.360;2023-07-22T07:57:02;95245.91;;;31.20;48.32
34742;BME280;20968;42.696;23.360;2023-07-22T07:59:27;95237.31;;;31.08;47.37
34742;BME280;20968;42.696;23.360;2023-07-22T08:01:52;95244.94;;;31.27;46.65
34742;BME280;20968;42.696;23.360;2023-07-22T08:04:18;95250.06;;;31.40;46.42
34742;BME280;20968;42.696;23.360;2023-07-22T08:06:43;95247.75;;;31.59;46.50
34742;BME280;20968;42.696;23.360;2023-07-22T08:09:10;95238.63;;;31.72;46.73
34742;BME280;20968;42.696;23.360;2023-07-22T08:11:45;95237.78;;;31.92;46.43
34742;BME280;20968;42.696;23.360;2023-07-22T08:14:10;95241.66;;;32.08;45.48
34742;BME280;20968;42.696;23.360;2023-07-22T08:16:36;95240.41;;;32.23;46.35
34742;BME280;20968;42.696;23.360;2023-07-22T08:19:01;95239.25;;;32.39;46.20
34742;BME280;20968;42.696;23.360;2023-07-22T08:21:26;95241.88;;;32.46;43.23
34742;BME280;20968;42.696;23.360;2023-07-22T08:23:52;95241.88;;;32.46;44.32
34742;BME280;20968;42.696;23.360;2023-07-22T08:26:17;95239.88;;;32.49;45.56
34742;BME280;20968;42.696;23.360;2023-07-22T08:28:46;95232.44;;;32.67;43.28
34742;BME280;20968;42.696;23.360;2023-07-22T08:31:12;95243.00;;;32.64;43.16
34742;BME280;20968;42.696;23.360;2023-07-22T08:33:37;95240.50;;;32.47;43.75
34742;BME280;20968;42.696;23.360;2023-07-22T08:36:03;95236.16;;;32.58;43.45
34742;BME280;20968;42.696;23.360;2023-07-22T08:38:28;95219.91;;;32.60;43.90
34742;BME280;20968;42.696;23.360;2023-07-22T08:40:54;95226.34;;;32.72;43.87
34742;BME280;20968;42.696;23.360;2023-07-22T08:43:21;95221.44;;;32.86;44.70
34742;BME280;20968;42.696;23.360;2023-07-22T08:45:48;95212.00;;;32.95;43.12
34742;BME280;20968;42.696;23.360;2023-07-22T08:48:17;95215.31;;;33.03;44.23
34742;BME280;20968;42.696;23.360;2023-07-22T08:50:52;95208.59;;;33.10;42.13
34742;BME280;20968;42.696;23.360;2023-07-22T08:53:18;95203.41;;;32.95;42.69
34742;BME280;20968;42.696;23.360;2023-07-22T08:55:47;95198.34;;;32.82;44.31
34742;BME280;20968;42.696;23.360;2023-07-22T08:58:16;95195.41;;;33.05;42.26
34742;BME280;20968;42.696;23.360;2023-07-22T09:00:42;95186.94;;;33.19;43.24
34742;BME280;20968;42.696;23.360;2023-07-22T09:03:07;95189.34;;;33.11;41.86
34742;BME280;20968;42.696;23.360;2023-07-22T09:05:35;95182.41;;;33.02;42.26
34742;BME280;20968;42.696;23.360;2023-07-22T09:08:02;95189.66;;;33.17;42.90
34742;BME280;20968;42.696;23.360;2023-07-22T09:10:28;95190.44;;;33.17;41.73
34742;BME280;20968;42.696;23.360;2023-07-22T09:12:53;95191.16;;;33.18;43.44
34742;BME280;20968;42.696;23.360;2023-07-22T09:15:20;95196.69;;;33.52;41.54
34742;BME280;20968;42.696;23.360;2023-07-22T09:17:47;95192.06;;;33.33;42.55
34742;BME280;20968;42.696;23.360;2023-07-22T09:20:13;95191.19;;;33.56;43.07
34742;BME280;20968;42.696;23.360;2023-07-22T09:22:43;95184.09;;;33.57;41.49
34742;BME280;20968;42.696;23.360;2023-07-22T09:25:19;95182.22;;;33.61;40.53
34742;BME280;20968;42.696;23.360;2023-07-22T09:27:46;95178.78;;;33.90;40.61
34742;BME280;20968;42.696;23.360;2023-07-22T09:30:25;95174.84;;;33.97;39.76
34742;BME280;20968;42.696;23.360;2023-07-22T09:32:58;95175.19;;;33.89;40.05
34742;BME280;20968;42.696;23.360;2023-07-22T09:35:28;95178.06;;;34.16;40.26
34742;BME280;20968;42.696;23.360;2023-07-22T09:37:54;95182.75;;;34.10;39.24
34742;BME280;20968;42.696;23.360;2023-07-22T09:40:25;95174.25;;;34.11;39.37
34742;BME280;20968;42.696;23.360;2023-07-22T09:42:53;95163.84;;;34.05;39.22
34742;BME280;20968;42.696;23.360;2023-07-22T09:45:22;95163.66;;;34.14;39.46
34742;BME280;20968;42.696;23.360;2023-07-22T09:47:49;95155.72;;;34.39;38.89
34742;BME280;20968;42.696;23.360;2023-07-22T09:50:22;95153.03;;;34.43;37.81
34742;BME280;20968;42.696;23.360;2023-07-22T09:52:51;95152.94;;;34.41;38.03
34742;BME280;20968;42.696;23.360;2023-07-22T09:55:24;95153.28;;;34.34;37.92
34742;BME280;20968;42.696;23.360;2023-07-22T09:57:54;95154.63;;;34.46;39.20
34742;BME280;20968;42.696;23.360;2023-07-22T10:00:20;95145.72;;;34.67;37.37
34742;BME280;20968;42.696;23.360;2023-07-22T10:02:49;95145.03;;;34.82;37.69
34742;BME280;20968;42.696;23.360;2023-07-22T10:05:18;95141.91;;;35.05;37.09
34742;BME280;20968;42.696;23.360;2023-07-22T10:07:53;95141.09;;;35.18;36.01
34742;BME280;20968;42.696;23.360;2023-07-22T10:10:21;95139.66;;;35.32;36.34
34742;BME280;20968;42.696;23.360;2023-07-22T10:12:48;95141.03;;;35.31;36.09
34742;BME280;20968;42.696;23.360;2023-07-22T10:15:15;95145.75;;;35.40;35.77
34742;BME280;20968;42.696;23.360;2023-07-22T10:17:42;95139.47;;;35.44;35.89
34742;BME280;20968;42.696;23.360;2023-07-22T10:20:09;95134.75;;;35.35;36.97
34742;BME280;20968;42.696;23.360;2023-07-22T10:22:42;95128.19;;;35.32;36.73
34742;BME280;20968;42.696;23.360;2023-07-22T10:25:10;95130.78;;;35.42;37.21
34742;BME280;20968;42.696;23.360;2023-07-22T10:27:36;95134.03;;;35.50;36.16
34742;BME280;20968;42.696;23.360;2023-07-22T10:30:05;95115.47;;;35.51;36.29
34742;BME280;20968;42.696;23.360;2023-07-22T10:32:35;95119.44;;;35.74;37.42
34742;BME280;20968;42.696;23.360;2023-07-22T10:35:01;95121.00;;;35.93;37.44
34742;BME280;20968;42.696;23.360;2023-07-22T10:37:34;95117.31;;;36.06;36.62
34742;BME280;20968;42.696;23.360;2023-07-22T10:40:01;95117.78;;;36.33;35.90
34742;BME280;20968;42.696;23.360;2023-07-22T10:42:27;95124.94;;;36.48;34.40
34742;BME280;20968;42.696;23.360;2023-07-22T10:44:52;95116.47;;;36.52;33.10
34742;BME280;20968;42.696;23.360;2023-07-22T10:47:33;95111.47;;;36.52;30.49
34742;BME280;20968;42.696;23.360;2023-07-22T10:50:06;95107.28;;;36.72;30.49
34742;BME280;20968;42.696;23.360;2023-07-22T10:52:43;95123.47;;;36.64;31.04
34742;BME280;20968;42.696;23.360;2023-07-22T10:55:19;95118.38;;;36.45;31.22
34742;BME280;20968;42.696;23.360;2023-07-22T10:57:49;95117.03;;;36.48;31.09
34742;BME280;20968;42.696;23.360;2023-07-22T11:00:19;95094.81;;;36.49;31.44
34742;BME280;20968;42.696;23.360;2023-07-22T11:03:13;95104.50;;;36.74;31.88
34742;BME280;20968;42.696;23.360;2023-07-22T11:05:50;95103.94;;;36.78;31.40
34742;BME280;20968;42.696;23.360;2023-07-22T11:08:16;95101.31;;;36.84;31.28
34742;BME280;20968;42.696;23.360;2023-07-22T11:10:54;95107.00;;;36.82;31.14
34742;BME280;20968;42.696;23.360;2023-07-22T11:13:29;95096.13;;;36.80;30.44
34742;BME280;20968;42.696;23.360;2023-07-22T11:15:58;95090.97;;;36.77;30.66
34742;BME280;20968;42.696;23.360;2023-07-22T11:18:39;95087.59;;;36.65;30.66
34742;BME280;20968;42.696;23.360;2023-07-22T11:21:12;95097.22;;;36.71;31.23
34742;BME280;20968;42.696;23.360;2023-07-22T11:23:37;95096.13;;;36.80;29.82
34742;BME280;20968;42.696;23.360;2023-07-22T11:26:03;95104.47;;;36.90;29.58
34742;BME280;20968;42.696;23.360;2023-07-22T11:28:30;95089.69;;;36.97;29.71
34742;BME280;20968;42.696;23.360;2023-07-22T11:30:55;95096.66;;;37.10;29.96
34742;BME280;20968;42.696;23.360;2023-07-22T11:33:21;95088.28;;;36.98;29.63
34742;BME280;20968;42.696;23.360;2023-07-22T11:35:47;95079.25;;;36.88;30.67
34742;BME280;20968;42.696;23.360;2023-07-22T11:38:12;95075.31;;;36.80;30.57
34742;BME280;20968;42.696;23.360;2023-07-22T11:40:38;95073.25;;;37.00;30.77
34742;BME280;20968;42.696;23.360;2023-07-22T11:43:04;95065.59;;;37.24;30.76
34742;BME280;20968;42.696;23.360;2023-07-22T11:45:30;95069.28;;;37.43;30.07
34742;BME280;20968;42.696;23.360;2023-07-22T11:47:56;95059.22;;;37.44;30.21
34742;BME280;20968;42.696;23.360;2023-07-22T11:50:32;95058.38;;;37.59;29.81
34742;BME280;20968;42.696;23.360;2023-07-22T11:52:58;95066.47;;;37.45;29.54
34742;BME280;20968;42.696;23.360;2023-07-22T11:55:24;95060.66;;;37.26;30.39
34742;BME280;20968;42.696;23.360;2023-07-22T11:57:53;95061.44;;;37.09;30.46
34742;BME280;20968;42.696;23.360;2023-07-22T12:00:19;95063.47;;;37.24;30.34
34742;BME280;20968;42.696;23.360;2023-07-22T12:02:45;95057.97;;;37.13;30.47
34742;BME280;20968;42.696;23.360;2023-07-22T12:05:10;95053.59;;;37.29;30.62
34742;BME280;20968;42.696;23.360;2023-07-22T12:07:37;95053.59;;;37.29;30.55
34742;BME280;20968;42.696;23.360;2023-07-22T12:10:05;95059.50;;;37.50;30.85
34742;BME280;20968;42.696;23.360;2023-07-22T12:12:53;95049.50;;;37.53;30.90
34742;BME280;20968;42.696;23.360;2023-07-22T12:15:19;95046.28;;;37.43;30.80
34742;BME280;20968;42.696;23.360;2023-07-22T12:17:52;95043.63;;;37.49;30.87
34742;BME280;20968;42.696;23.360;2023-07-22T12:20:22;95051.44;;;37.47;31.18
34742;BME280;20968;42.696;23.360;2023-07-22T12:22:48;95050.47;;;37.40;30.50
34742;BME280;20968;42.696;23.360;2023-07-22T12:25:13;95042.66;;;37.43;31.26
34742;BME280;20968;42.696;23.360;2023-07-22T12:27:39;95039.66;;;37.58;30.93
34742;BME280;20968;42.696;23.360;2023-07-22T12:30:05;95032.94;;;37.71;31.05
34742;BME280;20968;42.696;23.360;2023-07-22T12:32:33;95033.34;;;37.81;30.28
34742;BME280;20968;42.696;23.360;2023-07-22T12:34:58;95044.84;;;37.81;29.96
34742;BME280;20968;42.696;23.360;2023-07-22T12:37:24;95038.47;;;37.46;30.22
34742;BME280;20968;42.696;23.360;2023-07-22T12:39:51;95024.59;;;37.23;30.64
34742;BME280;20968;42.696;23.360;2023-07-22T12:42:16;95014.97;;;37.34;30.95
34742;BME280;20968;42.696;23.360;2023-07-22T12:44:41;95027.47;;;37.60;30.72
34742;BME280;20968;42.696;23.360;2023-07-22T12:47:07;95024.13;;;37.67;30.47
34742;BME280;20968;42.696;23.360;2023-07-22T12:49:33;95024.69;;;37.81;30.11